Terminal Aerodrome Forecast
Issued by NWS

Home | Current Version | Previous Version | Text Only | Print | Product List | Glossary Off
Versions: 1 2 3 4 5 6 7 8 9 10 11 12 13

000
FTUS43 KICT 251735
TAFRSL
TAF
KRSL 251735Z 2518/2618 16011KT P6SM SKC
     FM260100 16006KT P6SM SKC
     FM261600 17012KT P6SM SCT050=

USA.gov is the U.S. government's official web portal to all federal, state and local government web resources and services.